Time;durP1;ratioP1;P1;durP2;ratioP2;P2;SDS_P1;SDS_P2;PMS_P1;PMS_P2;Temp;Humidity;BMP_temperature;BMP_pressure;BME280_temperature;BME280_humidity;BME280_pressure;Samples;Min_cycle;Max_cycle;Signal;HPM_P1;HPM_P2
2023/12/11 00:02:22;;;;;;;;;;;;;;;19.12;46.46;97046.13;624111;227;64919;-68
2023/12/11 00:04:50;;;;;;;;;;;;;;;19.13;46.46;97046.95;624063;227;67122;-68
2023/12/11 00:07:18;;;;;;;;;;;;;;;19.13;46.46;97049.61;624156;227;67285;-68
2023/12/11 00:09:45;;;;;;;;;;;;;;;19.12;46.44;97046.13;624109;227;62434;-68
2023/12/11 00:12:13;;;;;;;;;;;;;;;19.12;46.45;97048.78;624043;227;67330;-68
2023/12/11 00:14:40;;;;;;;;;;;;;;;19.12;46.41;97045.33;624103;225;64668;-68
2023/12/11 00:17:09;;;;;;;;;;;;;;;19.11;46.41;97057.84;624083;227;65520;-69
2023/12/11 00:19:36;;;;;;;;;;;;;;;19.12;46.43;97042.66;624056;227;64511;-69
2023/12/11 00:22:04;;;;;;;;;;;;;;;19.10;46.38;97042.94;624156;227;66940;-68
2023/12/11 00:24:32;;;;;;;;;;;;;;;19.12;46.39;97035.47;624105;227;62684;-69
2023/12/11 00:26:59;;;;;;;;;;;;;;;19.13;46.42;97045.08;624097;227;67329;-68
2023/12/11 00:29:27;;;;;;;;;;;;;;;19.10;46.38;97032.28;624121;227;64085;-68
2023/12/11 00:31:55;;;;;;;;;;;;;;;19.11;46.39;97033.08;624068;227;62375;-68
2023/12/11 00:34:22;;;;;;;;;;;;;;;19.10;46.36;97034.94;624145;227;66868;-68
2023/12/11 00:36:50;;;;;;;;;;;;;;;19.12;46.40;97034.67;624053;226;64466;-68
2023/12/11 00:39:18;;;;;;;;;;;;;;;19.12;46.40;97024.02;624120;227;64736;-68
2023/12/11 00:41:46;;;;;;;;;;;;;;;19.12;46.38;97024.02;624093;227;66972;-68
2023/12/11 00:44:14;;;;;;;;;;;;;;;19.12;46.42;97019.48;624113;227;66842;-68
2023/12/11 00:46:42;;;;;;;;;;;;;;;19.11;46.38;97017.89;624101;227;64737;-68
2023/12/11 00:49:10;;;;;;;;;;;;;;;19.10;46.37;97018.96;624091;227;66853;-68
2023/12/11 00:51:38;;;;;;;;;;;;;;;19.13;46.39;97022.97;624124;227;66988;-68
2023/12/11 00:54:05;;;;;;;;;;;;;;;19.10;46.41;97013.64;624102;227;64911;-68
2023/12/11 00:56:33;;;;;;;;;;;;;;;19.13;46.41;97005.13;624059;227;65398;-68
2023/12/11 00:59:01;;;;;;;;;;;;;;;19.11;46.41;96995.78;624093;227;67186;-68
2023/12/11 01:01:28;;;;;;;;;;;;;;;19.12;46.40;96992.05;624053;227;62638;-68
2023/12/11 01:03:56;;;;;;;;;;;;;;;19.12;46.42;97003.50;624095;227;67500;-68
2023/12/11 01:06:23;;;;;;;;;;;;;;;19.13;46.39;97009.66;624046;227;64644;-68
2023/12/11 01:08:51;;;;;;;;;;;;;;;19.11;46.41;96991.25;624078;227;64980;-68
2023/12/11 01:11:19;;;;;;;;;;;;;;;19.10;46.47;96983.51;624124;227;64718;-68
2023/12/11 01:13:46;;;;;;;;;;;;;;;19.10;46.44;96979.01;624087;227;67851;-68
2023/12/11 01:16:14;;;;;;;;;;;;;;;19.08;46.46;96981.91;624089;227;62734;-68
2023/12/11 01:18:42;;;;;;;;;;;;;;;19.11;46.45;96977.14;624074;227;67135;-68
2023/12/11 01:21:10;;;;;;;;;;;;;;;19.10;46.46;96976.34;624095;227;67317;-68
2023/12/11 01:23:37;;;;;;;;;;;;;;;19.13;46.45;96983.02;624067;227;63519;-68
2023/12/11 01:26:05;;;;;;;;;;;;;;;19.13;46.46;96985.68;624095;227;67314;-68
2023/12/11 01:28:32;;;;;;;;;;;;;;;19.10;46.53;96973.67;624075;227;64652;-68
2023/12/11 01:31:00;;;;;;;;;;;;;;;19.10;46.51;96968.35;624103;227;65064;-68
2023/12/11 01:33:28;;;;;;;;;;;;;;;19.10;46.52;96976.34;624096;227;64846;-68
2023/12/11 01:35:55;;;;;;;;;;;;;;;19.09;46.52;96961.41;624058;226;67030;-68
2023/12/11 01:38:23;;;;;;;;;;;;;;;19.10;46.49;96960.36;624156;227;62464;-68
2023/12/11 01:40:51;;;;;;;;;;;;;;;19.10;46.50;96959.53;624056;227;67263;-68
2023/12/11 01:43:20;;;;;;;;;;;;;;;19.09;46.47;96956.08;624090;227;66830;-68
2023/12/11 01:45:49;;;;;;;;;;;;;;;19.11;46.45;96947.84;624089;227;64642;-68
2023/12/11 01:48:16;;;;;;;;;;;;;;;19.11;46.47;96945.97;623875;227;64792;-68
2023/12/11 01:50:44;;;;;;;;;;;;;;;19.10;46.50;96949.70;624097;227;68272;-68
2023/12/11 01:53:12;;;;;;;;;;;;;;;19.10;46.49;96941.72;623989;227;62357;-68
2023/12/11 01:55:40;;;;;;;;;;;;;;;19.11;46.51;96947.84;624059;227;67283;-68
2023/12/11 01:58:08;;;;;;;;;;;;;;;19.13;46.55;96945.72;624069;227;66983;-68
2023/12/11 02:00:36;;;;;;;;;;;;;;;19.10;46.53;96938.22;624097;227;62370;-68
2023/12/11 02:03:03;;;;;;;;;;;;;;;19.10;46.54;96931.06;624110;227;67409;-68
2023/12/11 02:05:31;;;;;;;;;;;;;;;19.11;46.52;96932.66;624083;227;64623;-68
2023/12/11 02:07:58;;;;;;;;;;;;;;;19.10;46.52;96931.06;624036;227;65617;-68
2023/12/11 02:10:26;;;;;;;;;;;;;;;19.10;46.47;96944.37;624103;227;64389;-68
2023/12/11 02:12:54;;;;;;;;;;;;;;;19.10;46.47;96952.37;624079;227;67149;-68
2023/12/11 02:15:24;;;;;;;;;;;;;;;19.09;46.48;96945.42;624107;227;62839;-68
2023/12/11 02:17:52;;;;;;;;;;;;;;;19.11;46.47;96945.17;622183;225;67630;-68
2023/12/11 02:20:19;;;;;;;;;;;;;;;19.07;46.55;96943.03;624020;227;64651;-68
2023/12/11 02:22:47;;;;;;;;;;;;;;;19.09;46.52;96950.75;624102;227;64920;-68
2023/12/11 02:25:15;;;;;;;;;;;;;;;19.11;46.51;96964.61;624055;225;64825;-68
2023/12/11 02:27:43;;;;;;;;;;;;;;;19.10;46.51;96971.02;624127;227;66955;-68
2023/12/11 02:30:10;;;;;;;;;;;;;;;19.10;46.48;96959.53;624091;227;62554;-68
2023/12/11 02:32:38;;;;;;;;;;;;;;;19.10;46.52;96970.19;624105;227;64710;-68
2023/12/11 02:35:06;;;;;;;;;;;;;;;19.07;46.48;96964.34;624019;227;64853;-68
2023/12/11 02:37:34;;;;;;;;;;;;;;;19.12;46.50;96976.06;624400;226;62302;-68
2023/12/11 02:40:03;;;;;;;;;;;;;;;19.10;46.53;96971.02;624493;227;67335;-68
2023/12/11 02:42:30;;;;;;;;;;;;;;;19.08;46.56;96962.47;624538;227;67072;-67
2023/12/11 02:44:58;;;;;;;;;;;;;;;19.09;46.58;96964.06;624531;227;63566;-67
2023/12/11 02:47:25;;;;;;;;;;;;;;;19.08;46.56;96957.15;624473;227;67313;-67
2023/12/11 02:49:53;;;;;;;;;;;;;;;19.09;46.60;96958.73;624493;227;64650;-67
2023/12/11 02:52:21;;;;;;;;;;;;;;;19.09;46.61;96950.75;624523;227;64913;-67
2023/12/11 02:54:48;;;;;;;;;;;;;;;19.07;46.61;96948.36;624539;227;64726;-67
2023/12/11 02:57:16;;;;;;;;;;;;;;;19.10;46.64;96947.04;624599;227;66745;-67
2023/12/11 02:59:44;;;;;;;;;;;;;;;19.10;46.67;96946.22;624546;227;62369;-67
2023/12/11 03:02:12;;;;;;;;;;;;;;;19.08;46.65;96954.48;624545;227;67221;-67
2023/12/11 03:04:39;;;;;;;;;;;;;;;19.08;46.62;96957.94;624511;227;67603;-67
2023/12/11 03:07:07;;;;;;;;;;;;;;;19.08;46.61;96951.81;624592;227;64710;-67
2023/12/11 03:09:35;;;;;;;;;;;;;;;19.10;46.62;96947.04;624519;227;64722;-68
2023/12/11 03:12:02;;;;;;;;;;;;;;;19.10;46.60;96963.02;624547;227;67065;-68
2023/12/11 03:14:30;;;;;;;;;;;;;;;19.10;46.60;96968.35;624497;227;62383;-68
2023/12/11 03:16:57;;;;;;;;;;;;;;;19.09;46.56;96972.06;624549;227;67987;-68
2023/12/11 03:19:25;;;;;;;;;;;;;;;19.07;46.53;96963.55;624587;227;64694;-68
2023/12/11 03:21:55;;;;;;;;;;;;;;;19.07;46.52;96968.88;624551;227;65737;-68
2023/12/11 03:24:22;;;;;;;;;;;;;;;19.11;46.53;96972.61;624550;227;66811;-68
2023/12/11 03:26:50;;;;;;;;;;;;;;;19.09;46.56;96961.41;624543;227;67269;-68
2023/12/11 03:29:17;;;;;;;;;;;;;;;19.08;46.58;96965.94;624522;227;64840;-68
2023/12/11 03:31:45;;;;;;;;;;;;;;;19.07;46.56;96959.02;624550;227;64721;-68
2023/12/11 03:34:12;;;;;;;;;;;;;;;19.09;46.55;96969.39;624587;227;67000;-68
2023/12/11 03:36:40;;;;;;;;;;;;;;;19.08;46.56;96965.14;624332;225;62649;-68
2023/12/11 03:39:08;;;;;;;;;;;;;;;19.07;46.53;96966.21;624109;227;67090;-68
2023/12/11 03:41:35;;;;;;;;;;;;;;;19.07;46.57;96969.67;624050;227;64492;-68
2023/12/11 03:44:03;;;;;;;;;;;;;;;19.07;46.54;96969.67;624107;227;64708;-68
2023/12/11 03:46:31;;;;;;;;;;;;;;;19.08;46.55;96962.47;624148;227;67325;-68
2023/12/11 03:48:58;;;;;;;;;;;;;;;19.08;46.54;96959.81;624108;227;64639;-68
2023/12/11 03:51:26;;;;;;;;;;;;;;;19.08;46.56;96967.80;624096;227;66210;-68
2023/12/11 03:53:54;;;;;;;;;;;;;;;19.08;46.56;96965.14;624061;227;64694;-68
2023/12/11 03:56:21;;;;;;;;;;;;;;;19.08;46.57;96967.80;624036;227;66932;-68
2023/12/11 03:58:49;;;;;;;;;;;;;;;19.06;46.57;96964.59;624146;227;62385;-68
2023/12/11 04:01:16;;;;;;;;;;;;;;;19.08;46.60;96960.61;624062;227;67135;-68
2023/12/11 04:03:44;;;;;;;;;;;;;;;19.05;46.59;96961.13;624106;227;64692;-68
2023/12/11 04:06:12;;;;;;;;;;;;;;;19.07;46.61;96968.88;624090;227;64732;-68
2023/12/11 04:08:41;;;;;;;;;;;;;;;19.09;46.56;96977.38;624033;227;67315;-68
2023/12/11 04:11:09;;;;;;;;;;;;;;;19.07;46.57;96980.32;623951;227;66722;-68
2023/12/11 04:13:37;;;;;;;;;;;;;;;19.08;46.60;96983.78;624088;225;64930;-68
2023/12/11 04:16:05;;;;;;;;;;;;;;;19.09;46.61;96980.05;624085;227;64554;-68
2023/12/11 04:18:33;;;;;;;;;;;;;;;19.08;46.54;96973.13;624042;227;65294;-68
2023/12/11 04:21:01;;;;;;;;;;;;;;;19.08;46.55;96971.26;624063;227;64734;-69
2023/12/11 04:23:28;;;;;;;;;;;;;;;19.09;46.53;96974.72;624069;225;67386;-68
2023/12/11 04:26:01;;;;;;;;;;;;;;;19.08;46.52;96975.79;624134;227;66928;-68
2023/12/11 04:28:26;;;;;;;;;;;;;;;19.08;46.52;96981.91;623523;227;62439;-67
2023/12/11 04:30:54;;;;;;;;;;;;;;;19.12;46.53;96992.05;623876;227;67230;-67
2023/12/11 04:33:22;;;;;;;;;;;;;;;19.07;46.54;96985.66;623881;227;66766;-67
2023/12/11 04:35:49;;;;;;;;;;;;;;;19.07;46.53;96985.66;623887;226;64453;-67
2023/12/11 04:38:17;;;;;;;;;;;;;;;19.10;46.53;96991.50;624327;225;65311;-67
2023/12/11 04:40:45;;;;;;;;;;;;;;;19.10;46.55;96999.48;624334;227;66798;-67
2023/12/11 04:43:12;;;;;;;;;;;;;;;19.08;46.50;96986.45;624307;227;62530;-67
2023/12/11 04:45:40;;;;;;;;;;;;;;;19.10;46.53;96994.16;624364;226;67365;-67
2023/12/11 04:48:07;;;;;;;;;;;;;;;19.08;46.53;96989.11;624310;227;64434;-67
2023/12/11 04:50:35;;;;;;;;;;;;;;;19.08;46.54;96986.45;624285;227;64975;-67
2023/12/11 04:53:03;;;;;;;;;;;;;;;19.07;46.50;96982.19;624341;227;64407;-67
2023/12/11 04:55:30;;;;;;;;;;;;;;;19.08;46.48;96975.79;624183;227;67744;-67
2023/12/11 04:57:58;;;;;;;;;;;;;;;19.07;46.52;96974.20;624279;227;62360;-68
2023/12/11 05:00:25;;;;;;;;;;;;;;;19.09;46.52;96969.39;624549;227;67283;-68
2023/12/11 05:02:53;;;;;;;;;;;;;;;19.09;46.52;96964.06;624547;227;64855;-69
2023/12/11 05:05:21;;;;;;;;;;;;;;;19.06;46.53;96952.06;624535;227;64698;-69
2023/12/11 05:07:48;;;;;;;;;;;;;;;19.06;46.54;96940.61;624477;227;67325;-69
2023/12/11 05:10:16;;;;;;;;;;;;;;;19.06;46.56;96937.95;624536;227;66939;-69
2023/12/11 05:12:44;;;;;;;;;;;;;;;19.09;46.56;96950.75;624538;227;62512;-69
2023/12/11 05:15:11;;;;;;;;;;;;;;;19.10;46.54;96952.37;624559;227;67309;-69
2023/12/11 05:17:39;;;;;;;;;;;;;;;19.07;46.56;96934.25;624568;227;64646;-70
2023/12/11 05:20:07;;;;;;;;;;;;;;;19.08;46.61;96933.17;624526;227;64904;-69
2023/12/11 05:22:35;;;;;;;;;;;;;;;19.06;46.57;96932.62;624524;227;64716;-69
2023/12/11 05:25:02;;;;;;;;;;;;;;;19.05;46.50;96929.17;624558;227;66780;-69
2023/12/11 05:27:30;;;;;;;;;;;;;;;19.04;46.47;96922.25;624524;227;62368;-69
2023/12/11 05:29:58;;;;;;;;;;;;;;;19.08;46.48;96911.86;624523;227;68166;-69
2023/12/11 05:32:25;;;;;;;;;;;;;;;19.07;46.50;96921.73;624499;227;64963;-70
2023/12/11 05:34:53;;;;;;;;;;;;;;;19.08;46.52;96938.50;624504;227;64772;-68
2023/12/11 05:37:20;;;;;;;;;;;;;;;19.08;46.48;96943.83;624087;226;64884;-68
2023/12/11 05:39:48;;;;;;;;;;;;;;;19.08;46.52;96941.96;623862;227;68390;-68
2023/12/11 05:42:16;;;;;;;;;;;;;;;19.07;46.55;96947.56;623880;227;62362;-68
2023/12/11 05:44:43;;;;;;;;;;;;;;;19.07;46.54;96952.89;623844;227;68305;-68
2023/12/11 05:47:11;;;;;;;;;;;;;;;19.07;46.52;96951.02;623881;227;66833;-68
2023/12/11 05:49:38;;;;;;;;;;;;;;;19.07;46.49;96947.56;623837;227;62357;-67
2023/12/11 05:52:06;;;;;;;;;;;;;;;19.07;46.47;96960.88;623875;227;68001;-67
2023/12/11 05:54:34;;;;;;;;;;;;;;;19.09;46.44;96974.72;623914;227;64421;-69
2023/12/11 05:57:01;;;;;;;;;;;;;;;19.05;46.41;96965.66;623817;227;64831;-67
2023/12/11 05:59:29;;;;;;;;;;;;;;;19.06;46.44;96978.70;623883;227;64808;-68
2023/12/11 06:01:56;;;;;;;;;;;;;;;19.05;46.46;96965.66;623786;227;67702;-67
2023/12/11 06:04:24;;;;;;;;;;;;;;;19.10;46.47;96967.52;623840;227;62360;-67
2023/12/11 06:06:52;;;;;;;;;;;;;;;19.07;46.45;96968.88;623911;227;66861;-68
2023/12/11 06:09:19;;;;;;;;;;;;;;;19.07;46.42;96974.20;623879;227;64117;-68
2023/12/11 06:11:47;;;;;;;;;;;;;;;19.07;46.45;96975.00;623861;227;66250;-66
2023/12/11 06:14:15;;;;;;;;;;;;;;;19.07;46.46;96968.88;623809;227;66788;-66
2023/12/11 06:16:42;;;;;;;;;;;;;;;19.07;46.46;96971.53;623883;227;66720;-66
2023/12/11 06:19:10;;;;;;;;;;;;;;;19.06;46.49;96972.58;623938;227;64945;-67
2023/12/11 06:21:38;;;;;;;;;;;;;;;19.07;46.50;96982.19;623841;227;66680;-67
2023/12/11 06:24:06;;;;;;;;;;;;;;;19.04;46.52;96985.34;616458;227;67247;-66
2023/12/11 06:26:42;;;;;;;;;;;;;;;19.07;46.50;97006.16;623775;227;62359;-66
2023/12/11 06:29:06;;;;;;;;;;;;;;;19.06;46.50;96993.89;623658;227;66835;-66
2023/12/11 06:31:34;;;;;;;;;;;;;;;19.05;46.51;96997.63;623888;227;66792;-66
2023/12/11 06:34:01;;;;;;;;;;;;;;;19.07;46.56;97008.83;623951;227;64889;-67
2023/12/11 06:36:29;;;;;;;;;;;;;;;19.06;46.53;97005.34;623995;226;64774;-67
2023/12/11 06:38:57;;;;;;;;;;;;;;;19.05;46.56;97005.61;624334;227;66553;-67
2023/12/11 06:41:25;;;;;;;;;;;;;;;19.06;46.51;97005.34;624327;227;61279;-67
2023/12/11 06:43:53;;;;;;;;;;;;;;;19.06;46.53;97007.20;624369;227;66912;-68
2023/12/11 06:46:21;;;;;;;;;;;;;;;19.03;46.51;97005.06;624366;227;64587;-68
2023/12/11 06:48:49;;;;;;;;;;;;;;;19.07;46.50;97012.28;621486;225;66200;-68
2023/12/11 06:51:16;;;;;;;;;;;;;;;19.06;46.50;97004.54;617064;230;66936;-67
2023/12/11 06:53:44;;;;;;;;;;;;;;;19.04;46.52;97003.98;617043;230;66528;-67
2023/12/11 06:56:23;;;;;;;;;;;;;;;19.05;46.54;97011.73;617415;230;62415;-67
2023/12/11 06:58:48;;;;;;;;;;;;;;;19.06;46.49;97005.34;617217;230;66980;-67
2023/12/11 07:01:15;;;;;;;;;;;;;;;19.05;46.48;97000.28;617423;230;66616;-67
2023/12/11 07:03:45;;;;;;;;;;;;;;;19.06;46.49;97010.66;617444;230;64508;-68
2023/12/11 07:06:12;;;;;;;;;;;;;;;19.06;46.48;97013.33;617451;230;66756;-68
2023/12/11 07:08:40;;;;;;;;;;;;;;;19.06;46.45;97007.20;617384;230;66754;-68
2023/12/11 07:11:08;;;;;;;;;;;;;;;19.04;46.46;97006.66;617399;230;63495;-67
2023/12/11 07:13:35;;;;;;;;;;;;;;;19.04;46.44;97012.80;617501;230;67331;-68
2023/12/11 07:16:03;;;;;;;;;;;;;;;19.04;49.20;97010.14;617455;228;64412;-70
2023/12/11 07:18:31;;;;;;;;;;;;;;;19.02;48.17;96998.94;617442;230;62309;-67
2023/12/11 07:20:58;;;;;;;;;;;;;;;19.06;46.20;97009.87;617431;230;67074;-67
2023/12/11 07:23:26;;;;;;;;;;;;;;;19.04;45.96;96999.48;617439;230;64416;-68
2023/12/11 07:25:54;;;;;;;;;;;;;;;19.04;46.03;97001.33;617481;230;64697;-67
2023/12/11 07:28:21;;;;;;;;;;;;;;;19.04;47.69;97001.33;616779;230;64474;-68
2023/12/11 07:30:49;;;;;;;;;;;;;;;19.03;46.64;97005.06;617384;228;66768;-67
2023/12/11 07:33:17;;;;;;;;;;;;;;;19.03;46.41;97005.06;617446;230;62408;-68
2023/12/11 07:35:44;;;;;;;;;;;;;;;19.03;45.78;97005.06;617205;229;67817;-66
2023/12/11 07:38:12;;;;;;;;;;;;;;;19.03;46.03;97008.52;617345;229;64630;-67
2023/12/11 07:40:40;;;;;;;;;;;;;;;19.04;45.77;97020.80;617417;230;64674;-67
2023/12/11 07:43:08;;;;;;;;;;;;;;;19.04;46.47;97025.30;619602;227;64274;-68
2023/12/11 07:45:35;;;;;;;;;;;;;;;19.06;45.44;97031.97;621027;228;66761;-74
2023/12/11 07:48:03;;;;;;;;;;;;;;;19.05;45.36;97014.40;621018;228;64924;-67
2023/12/11 07:50:31;;;;;;;;;;;;;;;19.08;45.50;97027.20;621065;228;64422;-67
2023/12/11 07:52:58;;;;;;;;;;;;;;;19.07;45.72;97030.14;621659;227;66554;-67
2023/12/11 07:55:26;;;;;;;;;;;;;;;19.06;45.89;97029.31;622497;228;62341;-67
2023/12/11 07:57:54;;;;;;;;;;;;;;;19.09;45.87;97027.99;622545;228;66793;-66
2023/12/11 08:00:22;;;;;;;;;;;;;;;19.09;45.97;97030.66;622614;228;64530;-66
2023/12/11 08:02:49;;;;;;;;;;;;;;;19.08;45.56;97029.06;622631;228;64781;-68
2023/12/11 08:05:17;;;;;;;;;;;;;;;19.09;45.58;97030.66;622640;228;64163;-67
2023/12/11 08:07:45;;;;;;;;;;;;;;;19.10;46.61;97029.62;622608;228;66763;-68
2023/12/11 08:10:12;;;;;;;;;;;;;;;19.07;46.46;97022.94;622551;228;64917;-67
2023/12/11 08:12:40;;;;;;;;;;;;;;;19.07;46.35;97025.61;622609;228;66831;-69
2023/12/11 08:15:08;;;;;;;;;;;;;;;19.08;46.53;97029.86;622677;228;66781;-69
2023/12/11 08:17:36;;;;;;;;;;;;;;;19.09;46.36;97035.98;622526;228;62646;-68
2023/12/11 08:20:05;;;;;;;;;;;;;;;19.11;46.15;97033.08;622597;228;66468;-68
2023/12/11 08:22:32;;;;;;;;;;;;;;;19.11;45.60;97038.41;622618;228;64832;-68
2023/12/11 08:25:00;;;;;;;;;;;;;;;19.10;45.51;97029.62;622506;228;64746;-70
2023/12/11 08:27:28;;;;;;;;;;;;;;;19.12;45.55;97018.69;622596;228;67313;-71
2023/12/11 08:29:56;;;;;;;;;;;;;;;19.11;45.61;97022.42;622622;228;66818;-68
2023/12/11 08:32:23;;;;;;;;;;;;;;;19.14;45.69;97033.36;622527;228;64740;-69
2023/12/11 08:34:51;;;;;;;;;;;;;;;19.06;45.78;97007.20;622616;228;64268;-67
2023/12/11 08:37:19;;;;;;;;;;;;;;;19.14;45.81;97019.23;622470;227;66740;-66
2023/12/11 08:39:46;;;;;;;;;;;;;;;19.11;46.01;97017.09;622572;228;64800;-66
2023/12/11 08:42:14;;;;;;;;;;;;;;;19.14;45.79;97019.23;622404;227;66668;-67
2023/12/11 08:44:42;;;;;;;;;;;;;;;19.13;45.83;97021.11;621596;228;64147;-66
2023/12/11 08:47:12;;;;;;;;;;;;;;;19.11;45.77;97007.23;621579;228;64855;-66
2023/12/11 08:49:40;;;;;;;;;;;;;;;19.13;45.67;97021.11;621538;228;66600;-67
2023/12/11 08:52:08;;;;;;;;;;;;;;;19.13;45.62;97017.64;621528;228;64328;-67
2023/12/11 08:54:35;;;;;;;;;;;;;;;19.13;45.72;97014.98;621582;228;64706;-68
2023/12/11 08:57:03;;;;;;;;;;;;;;;19.13;45.92;97009.66;621561;228;66605;-69
2023/12/11 08:59:32;;;;;;;;;;;;;;;19.14;45.66;97017.37;620952;227;66421;-69
2023/12/11 09:02:01;;;;;;;;;;;;;;;19.13;45.72;97005.13;621658;228;64830;-68
2023/12/11 09:04:29;;;;;;;;;;;;;;;19.12;45.66;96987.52;621591;228;64350;-70
2023/12/11 09:06:56;;;;;;;;;;;;;;;19.13;45.66;96994.47;621663;228;66316;-68
2023/12/11 09:09:24;;;;;;;;;;;;;;;19.13;45.69;96994.47;621628;228;64876;-67
2023/12/11 09:11:52;;;;;;;;;;;;;;;19.10;45.67;96987.00;621598;228;66705;-67
2023/12/11 09:14:19;;;;;;;;;;;;;;;19.13;45.72;96983.02;621578;228;67262;-68
2023/12/11 09:16:47;;;;;;;;;;;;;;;19.14;45.78;96974.75;622305;227;63576;-70
2023/12/11 09:19:15;;;;;;;;;;;;;;;19.14;45.84;96972.09;622609;228;68356;-69
2023/12/11 09:21:43;;;;;;;;;;;;;;;19.16;45.90;96977.96;622535;228;64255;-69
2023/12/11 09:24:12;;;;;;;;;;;;;;;19.15;45.96;96976.38;622645;228;64715;-68
2023/12/11 09:26:39;;;;;;;;;;;;;;;19.15;46.03;96980.88;622490;228;66985;-68
2023/12/11 09:29:07;;;;;;;;;;;;;;;19.15;46.08;96978.20;622548;228;65004;-69
2023/12/11 09:31:35;;;;;;;;;;;;;;;19.15;46.10;96972.88;622619;228;65502;-69
2023/12/11 09:34:02;;;;;;;;;;;;;;;19.16;46.11;96979.83;622609;228;64240;-69
2023/12/11 09:36:30;;;;;;;;;;;;;;;19.15;46.04;96972.88;622537;227;66791;-67
2023/12/11 09:38:58;;;;;;;;;;;;;;;19.14;46.00;96964.09;622591;228;62322;-68
2023/12/11 09:41:30;;;;;;;;;;;;;;;19.16;46.02;96961.98;622553;228;67141;-68
2023/12/11 09:43:58;;;;;;;;;;;;;;;19.16;46.06;96958.52;622448;227;64440;-68
2023/12/11 09:46:27;;;;;;;;;;;;;;;19.16;46.11;96956.65;622616;228;62284;-72
2023/12/11 09:48:55;;;;;;;;;;;;;;;19.17;46.24;96952.12;622559;228;66891;-73
2023/12/11 09:51:23;;;;;;;;;;;;;;;19.15;46.35;96952.39;622469;228;64580;-70
2023/12/11 09:53:52;;;;;;;;;;;;;;;19.18;46.39;96954.53;622567;228;62789;-70
2023/12/11 09:56:20;;;;;;;;;;;;;;;19.17;46.42;96944.13;622474;228;67106;-69
2023/12/11 09:58:48;;;;;;;;;;;;;;;19.18;46.55;96933.22;622594;228;66871;-69
2023/12/11 10:01:16;;;;;;;;;;;;;;;19.19;46.73;96932.15;622583;228;64740;-68
2023/12/11 10:03:44;;;;;;;;;;;;;;;19.17;46.74;96923.61;622416;228;67218;-69
2023/12/11 10:06:12;;;;;;;;;;;;;;;19.18;46.61;96917.23;622534;228;64853;-69
2023/12/11 10:08:43;;;;;;;;;;;;;;;19.17;46.49;96915.62;622565;228;64730;-69
2023/12/11 10:11:18;;;;;;;;;;;;;;;19.17;46.48;96915.62;622488;228;65031;-68
2023/12/11 10:13:46;;;;;;;;;;;;;;;19.18;46.55;96911.91;622584;228;67018;-67
2023/12/11 10:16:30;;;;;;;;;;;;;;;19.17;46.58;96904.96;622558;228;64441;-69
2023/12/11 10:18:58;;;;;;;;;;;;;;;19.18;46.48;96908.42;622419;228;67139;-69
2023/12/11 10:21:26;;;;;;;;;;;;;;;19.16;46.31;96889.26;622574;228;66927;-69
2023/12/11 10:24:07;;;;;;;;;;;;;;;19.16;46.19;96892.72;622540;228;64696;-69
2023/12/11 10:26:36;;;;;;;;;;;;;;;19.19;46.19;96894.85;622491;228;65079;-69
2023/12/11 10:29:05;;;;;;;;;;;;;;;19.16;46.19;96882.06;621732;228;67229;-67
2023/12/11 10:31:35;;;;;;;;;;;;;;;19.16;46.24;96884.72;622083;227;62363;-70
2023/12/11 10:34:03;;;;;;;;;;;;;;;19.14;46.06;96870.86;622445;228;64806;-69
2023/12/11 10:36:31;;;;;;;;;;;;;;;19.15;45.69;96861.83;622178;227;67977;-70
2023/12/11 10:39:08;;;;;;;;;;;;;;;19.15;45.57;96864.48;621419;228;62521;-70
2023/12/11 10:41:36;;;;;;;;;;;;;;;19.17;45.75;96864.20;621418;228;67004;-69
2023/12/11 10:44:03;;;;;;;;;;;;;;;19.14;45.17;96846.88;621437;228;65086;-69
2023/12/11 10:46:31;;;;;;;;;;;;;;;19.15;45.21;96847.68;621395;228;64683;-70
2023/12/11 10:49:02;;;;;;;;;;;;;;;19.15;45.26;96845.84;621408;228;64554;-69
2023/12/11 10:51:29;;;;;;;;;;;;;;;19.15;45.42;96842.35;621406;228;66745;-68
2023/12/11 10:53:57;;;;;;;;;;;;;;;19.14;45.38;96830.91;621377;228;62730;-71
2023/12/11 10:56:24;;;;;;;;;;;;;;;19.14;45.15;96825.58;621479;228;64883;-69
2023/12/11 10:58:52;;;;;;;;;;;;;;;19.15;45.35;96818.38;621451;228;66876;-66
2023/12/11 11:01:21;;;;;;;;;;;;;;;19.15;44.99;96816.54;621321;228;65565;-68
2023/12/11 11:03:50;;;;;;;;;;;;;;;19.17;44.81;96819.72;621404;228;67177;-68
2023/12/11 11:06:19;;;;;;;;;;;;;;;19.17;44.75;96809.06;621483;228;64726;-68
2023/12/11 11:08:51;;;;;;;;;;;;;;;19.17;44.90;96809.06;621256;228;65195;-69
2023/12/11 11:11:27;;;;;;;;;;;;;;;19.16;45.19;96802.14;621099;228;67371;-69
2023/12/11 11:13:58;;;;;;;;;;;;;;;19.16;45.42;96807.47;621409;228;64921;-68
2023/12/11 11:16:27;;;;;;;;;;;;;;;19.18;45.60;96812.52;621399;228;63306;-68
2023/12/11 11:19:09;;;;;;;;;;;;;;;19.20;45.66;96813.06;620469;228;67235;-68
2023/12/11 11:21:33;;;;;;;;;;;;;;;19.18;45.74;96805.35;621217;228;64931;-67
2023/12/11 11:24:01;;;;;;;;;;;;;;;19.18;45.74;96809.86;621490;228;64643;-69
2023/12/11 11:26:33;;;;;;;;;;;;;;;19.20;45.72;96811.20;621538;228;64886;-69
2023/12/11 11:29:01;;;;;;;;;;;;;;;19.17;45.58;96809.06;621426;228;67101;-70
2023/12/11 11:31:46;;;;;;;;;;;;;;;19.17;45.52;96814.39;621490;228;64640;-69
2023/12/11 11:34:14;;;;;;;;;;;;;;;19.19;45.60;96817.59;621507;228;67191;-70
2023/12/11 11:36:51;;;;;;;;;;;;;;;19.17;45.93;96816.26;621858;227;67151;-71
2023/12/11 11:39:15;;;;;;;;;;;;;;;19.18;46.12;96809.86;622250;227;62640;-70
2023/12/11 11:41:43;;;;;;;;;;;;;;;19.20;46.27;96803.20;622529;228;65178;-70
2023/12/11 11:44:11;;;;;;;;;;;;;;;19.17;46.37;96787.75;622511;228;67349;-70
2023/12/11 11:46:49;;;;;;;;;;;;;;;19.21;46.41;96794.16;622582;228;62584;-70
2023/12/11 11:49:25;;;;;;;;;;;;;;;19.20;46.44;96797.88;622573;228;64980;-70
2023/12/11 11:51:52;;;;;;;;;;;;;;;19.21;46.50;96796.03;622285;227;66851;-69
2023/12/11 11:54:24;;;;;;;;;;;;;;;19.21;46.52;96788.84;622651;228;62519;-67
2023/12/11 11:56:52;;;;;;;;;;;;;;;19.20;46.55;96792.55;622620;228;67185;-68
2023/12/11 11:59:20;;;;;;;;;;;;;;;19.19;46.52;96780.30;622522;228;64503;-68
2023/12/11 12:01:51;;;;;;;;;;;;;;;19.21;46.42;96786.17;622421;228;62523;-68
2023/12/11 12:04:28;;;;;;;;;;;;;;;19.22;46.35;96774.44;622604;228;64760;-67
2023/12/11 12:06:57;;;;;;;;;;;;;;;19.22;46.40;96771.78;622429;228;67221;-68
2023/12/11 12:09:25;;;;;;;;;;;;;;;19.22;46.45;96766.45;622365;227;64579;-69
2023/12/11 12:11:53;;;;;;;;;;;;;;;19.22;46.50;96766.45;621818;228;67553;-68
2023/12/11 12:14:21;;;;;;;;;;;;;;;19.21;46.60;96762.20;622028;228;66984;-69
2023/12/11 12:16:49;;;;;;;;;;;;;;;19.22;46.62;96752.34;622562;228;64824;-68
2023/12/11 12:19:17;;;;;;;;;;;;;;;19.23;46.67;96749.42;622509;228;67153;-68
2023/12/11 12:21:51;;;;;;;;;;;;;;;19.21;46.68;96746.21;622510;228;64760;-68
2023/12/11 12:24:20;;;;;;;;;;;;;;;19.21;46.69;96740.88;622562;228;63203;-68
2023/12/11 12:26:52;;;;;;;;;;;;;;;19.24;46.70;96729.70;622437;227;49515;-68
2023/12/11 12:29:20;;;;;;;;;;;;;;;19.21;46.70;96719.57;622601;228;65783;-68
2023/12/11 12:31:48;;;;;;;;;;;;;;;19.22;46.75;96718.49;622564;228;63471;-67
2023/12/11 12:34:17;;;;;;;;;;;;;;;19.23;46.76;96708.63;622580;228;66947;-68
2023/12/11 12:36:45;;;;;;;;;;;;;;;19.23;46.75;96698.80;622082;227;64967;-68
2023/12/11 12:39:16;;;;;;;;;;;;;;;19.22;46.72;96686.53;621423;228;64600;-68
2023/12/11 12:41:44;;;;;;;;;;;;;;;19.23;46.70;96681.99;621449;228;64884;-67
2023/12/11 12:44:12;;;;;;;;;;;;;;;19.22;46.75;96675.88;621492;228;64783;-68
2023/12/11 12:46:41;;;;;;;;;;;;;;;19.23;46.76;96674.83;621503;228;64727;-68
2023/12/11 12:49:10;;;;;;;;;;;;;;;19.23;46.79;96672.16;621291;228;67224;-68
2023/12/11 12:51:50;;;;;;;;;;;;;;;19.24;46.88;96668.42;621519;228;66333;-68
2023/12/11 12:54:18;;;;;;;;;;;;;;;19.22;46.92;96659.89;621497;228;64669;-68